Time;durP1;ratioP1;P1;durP2;ratioP2;P2;SDS_P1;SDS_P2;PMS_P1;PMS_P2;Temp;Humidity;BMP_temperature;BMP_pressure;BME280_temperature;BME280_humidity;BME280_pressure;Samples;Min_cycle;Max_cycle;Signal;HPM_P1;HPM_P2
2024/03/30 00:01:53;;;;;;;5.70;2.30;;;15.60;72.20;;;;;;2309793;56;21031;-68
2024/03/30 00:04:20;;;;;;;6.12;2.47;;;15.60;72.20;;;;;;2310231;56;21019;-68
2024/03/30 00:06:46;;;;;;;5.37;2.22;;;15.50;72.00;;;;;;2310446;55;21003;-66
2024/03/30 00:09:14;;;;;;;6.28;2.47;;;15.60;72.10;;;;;;2309238;55;21086;-68
2024/03/30 00:11:40;;;;;;;7.05;3.15;;;15.50;72.00;;;;;;2310820;55;21069;-69
2024/03/30 00:14:07;;;;;;;6.22;2.55;;;15.50;72.10;;;;;;2310469;55;20975;-68
2024/03/30 00:16:33;;;;;;;5.62;2.37;;;15.50;72.00;;;;;;2310660;55;20952;-67
2024/03/30 00:19:01;;;;;;;7.50;2.40;;;15.40;72.00;;;;;;2287209;55;20969;-67
2024/03/30 00:21:46;;;;;;;5.62;2.75;;;15.40;72.00;;;;;;2309946;56;21006;-68
2024/03/30 00:24:12;;;;;;;5.18;2.30;;;15.40;71.30;;;;;;2310542;55;20970;-68
2024/03/30 00:26:38;;;;;;;6.12;2.70;;;15.30;71.90;;;;;;2292088;55;21360;-69
2024/03/30 00:29:05;;;;;;;5.85;2.47;;;15.40;72.10;;;;;;2306014;56;20935;-67
2024/03/30 00:31:32;;;;;;;4.75;2.08;;;15.20;71.90;;;;;;2305703;56;20997;-69
2024/03/30 00:33:58;;;;;;;4.35;1.75;;;15.20;71.90;;;;;;2291269;55;21027;-68
2024/03/30 00:36:24;;;;;;;5.07;2.25;;;15.20;72.00;;;;;;2293441;55;21009;-69
2024/03/30 00:38:50;;;;;;;6.32;2.00;;;15.20;71.90;;;;;;2303647;56;20987;-67
2024/03/30 00:41:17;;;;;;;7.05;2.10;;;15.20;72.00;;;;;;2310523;55;20939;-69
2024/03/30 00:43:45;;;;;;;5.10;2.42;;;15.10;71.90;;;;;;2310088;55;21066;-68
2024/03/30 00:46:14;;;;;;;8.77;2.67;;;15.10;72.00;;;;;;2309460;55;21043;-69
2024/03/30 00:48:43;;;;;;;7.15;2.70;;;15.10;72.00;;;;;;2309822;56;21032;-68
2024/03/30 00:51:09;;;;;;;8.48;3.30;;;15.10;72.10;;;;;;2310767;56;21014;-68
2024/03/30 00:53:36;;;;;;;7.87;3.20;;;15.10;72.20;;;;;;2310718;55;21023;-66
2024/03/30 00:56:02;;;;;;;10.60;4.30;;;15.10;72.20;;;;;;2310270;55;21782;-67
2024/03/30 00:58:28;;;;;;;10.55;4.25;;;15.00;72.20;;;;;;2310220;56;21033;-67
2024/03/30 01:00:55;;;;;;;9.82;4.72;;;15.00;72.20;;;;;;2309714;56;21433;-68
2024/03/30 01:03:21;;;;;;;11.20;5.45;;;15.00;72.40;;;;;;2310181;56;21476;-67
2024/03/30 01:05:47;;;;;;;10.57;4.28;;;15.00;72.50;;;;;;2289637;56;20961;-68
2024/03/30 01:08:14;;;;;;;8.45;4.37;;;15.00;72.60;;;;;;2286041;55;20995;-66
2024/03/30 01:10:40;;;;;;;9.15;4.78;;;14.90;72.60;;;;;;2307465;55;20963;-68
2024/03/30 01:13:07;;;;;;;10.32;4.50;;;14.90;72.70;;;;;;2310082;55;20939;-69
2024/03/30 01:15:33;;;;;;;8.50;4.37;;;14.90;72.70;;;;;;2309562;55;20979;-69
2024/03/30 01:18:01;;;;;;;10.27;4.40;;;14.90;72.80;;;;;;2309200;55;21829;-68
2024/03/30 01:20:28;;;;;;;10.15;4.93;;;14.90;72.80;;;;;;2306765;55;21138;-67
2024/03/30 01:22:54;;;;;;;10.68;4.75;;;14.90;72.80;;;;;;2289808;55;21793;-67
2024/03/30 01:25:21;;;;;;;9.30;4.60;;;14.90;72.80;;;;;;2309491;56;21027;-68
2024/03/30 01:27:48;;;;;;;9.80;5.22;;;14.90;72.80;;;;;;2309635;56;21122;-68
2024/03/30 01:30:15;;;;;;;10.75;5.70;;;14.90;72.80;;;;;;2309644;55;21312;-68
2024/03/30 01:32:42;;;;;;;8.63;4.72;;;14.90;72.80;;;;;;2309524;56;20995;-68
2024/03/30 01:35:12;;;;;;;10.15;5.45;;;14.90;72.90;;;;;;2308046;55;21314;-68
2024/03/30 01:38:02;;;;;;;11.30;5.50;;;14.90;72.90;;;;;;2310076;56;21004;-66
2024/03/30 01:40:33;;;;;;;14.52;6.82;;;14.90;72.40;;;;;;2309579;56;20959;-67
2024/03/30 01:43:05;;;;;;;20.45;8.82;;;14.90;73.00;;;;;;2286925;56;20955;-69
2024/03/30 01:45:34;;;;;;;;;;;14.90;73.00;;;;;;2313249;55;21849;-66
2024/03/30 01:48:02;;;;;;;9.10;5.22;;;15.00;72.00;;;;;;2309503;55;20655;-68
2024/03/30 01:50:29;;;;;;;12.52;6.30;;;15.00;73.10;;;;;;2310157;56;21044;-67
2024/03/30 01:52:59;;;;;;;14.18;7.53;;;15.00;73.20;;;;;;2283085;56;21271;-67
2024/03/30 01:55:25;;;;;;;13.52;7.03;;;14.90;73.10;;;;;;2518209;54;21032;-69
2024/03/30 01:57:52;;;;;;;12.57;6.75;;;14.90;73.10;;;;;;2283477;54;21640;-66
2024/03/30 02:00:18;;;;;;;13.25;6.28;;;15.00;73.30;;;;;;2279111;55;20987;-69
2024/03/30 02:02:47;;;;;;;15.07;6.97;;;14.90;73.20;;;;;;2278886;54;20960;-68
2024/03/30 02:05:13;;;;;;;18.42;8.70;;;14.90;73.20;;;;;;2278531;56;22050;-68
2024/03/30 02:07:41;;;;;;;16.98;7.82;;;14.90;73.00;;;;;;2279561;54;21972;-68
2024/03/30 02:10:08;;;;;;;16.40;7.72;;;14.90;73.00;;;;;;2278458;55;20936;-69
2024/03/30 02:12:34;;;;;;;11.00;5.80;;;14.90;72.90;;;;;;2278263;54;20979;-67
2024/03/30 02:15:01;;;;;;;11.50;6.00;;;14.90;72.90;;;;;;2278143;56;21405;-67
2024/03/30 02:17:28;;;;;;;12.63;6.03;;;14.90;73.00;;;;;;2279202;54;21563;-67
2024/03/30 02:19:57;;;;;;;11.38;5.80;;;14.90;73.00;;;;;;2274536;54;20914;-68
2024/03/30 02:22:24;;;;;;;9.60;5.15;;;14.90;73.10;;;;;;2279265;54;20949;-68
2024/03/30 02:24:50;;;;;;;10.23;4.62;;;14.90;73.10;;;;;;2279095;54;21117;-68
2024/03/30 02:27:16;;;;;;;8.80;4.28;;;14.90;73.10;;;;;;2279695;54;21769;-67
2024/03/30 02:29:49;;;;;;;9.98;4.95;;;14.90;73.10;;;;;;2280453;55;21207;-69
2024/03/30 02:32:15;;;;;;;10.07;5.57;;;14.90;73.10;;;;;;2311163;55;21335;-67
2024/03/30 02:34:42;;;;;;;9.55;5.12;;;14.90;73.10;;;;;;2297736;55;21001;-69
2024/03/30 02:37:11;;;;;;;10.80;5.47;;;14.90;73.10;;;;;;2299206;55;21457;-68
2024/03/30 02:39:37;;;;;;;10.63;5.53;;;14.90;73.00;;;;;;2309264;55;20947;-68
2024/03/30 02:42:05;;;;;;;10.75;5.72;;;14.90;72.90;;;;;;2310021;55;20923;-69
2024/03/30 02:44:31;;;;;;;11.18;5.72;;;14.90;72.80;;;;;;2309898;55;21208;-69
2024/03/30 02:46:58;;;;;;;10.70;5.25;;;14.90;72.70;;;;;;2309614;55;21508;-67
2024/03/30 02:49:24;;;;;;;9.38;5.07;;;14.80;72.70;;;;;;2303559;55;21085;-68
2024/03/30 02:51:50;;;;;;;8.85;4.55;;;14.80;72.70;;;;;;2287666;55;21111;-68
2024/03/30 02:54:16;;;;;;;9.48;5.22;;;14.80;72.80;;;;;;2293740;55;20972;-68
2024/03/30 02:56:43;;;;;;;9.13;4.53;;;14.80;72.70;;;;;;2309741;55;20963;-67
2024/03/30 02:59:09;;;;;;;9.30;4.68;;;14.80;72.60;;;;;;2310433;55;21580;-67
2024/03/30 03:01:36;;;;;;;7.55;4.22;;;14.80;72.50;;;;;;2309904;56;21373;-66
2024/03/30 03:04:03;;;;;;;7.32;3.92;;;14.80;72.50;;;;;;2309015;55;20999;-67
2024/03/30 03:06:30;;;;;;;9.73;3.85;;;14.70;72.40;;;;;;2310385;55;20927;-67
2024/03/30 03:08:56;;;;;;;7.85;3.83;;;14.70;72.30;;;;;;2309712;55;21015;-69
2024/03/30 03:11:24;;;;;;;7.50;4.12;;;14.70;72.40;;;;;;2309835;56;21393;-68
2024/03/30 03:13:53;;;;;;;10.20;4.25;;;14.70;72.50;;;;;;2309638;55;21436;-70
2024/03/30 03:16:19;;;;;;;7.47;3.83;;;14.70;72.60;;;;;;2310432;55;21032;-69
2024/03/30 03:18:47;;;;;;;7.03;3.65;;;14.70;72.60;;;;;;2310211;55;21268;-67
2024/03/30 03:21:13;;;;;;;6.95;3.25;;;14.60;72.60;;;;;;2310236;55;21047;-68
2024/03/30 03:23:43;;;;;;;7.78;4.00;;;14.60;72.70;;;;;;2310002;55;20916;-67
2024/03/30 03:26:09;;;;;;;7.75;4.03;;;14.60;72.70;;;;;;2309515;55;20968;-67
2024/03/30 03:28:35;;;;;;;6.28;3.40;;;14.60;72.70;;;;;;2310495;56;20939;-67
2024/03/30 03:31:01;;;;;;;5.90;2.97;;;14.60;72.70;;;;;;2310293;56;22505;-67
2024/03/30 03:33:28;;;;;;;5.90;2.83;;;14.60;72.70;;;;;;2295760;56;20933;-69
2024/03/30 03:35:55;;;;;;;6.22;3.03;;;14.60;72.80;;;;;;2302117;55;21250;-70
2024/03/30 03:38:21;;;;;;;6.28;3.12;;;14.60;72.80;;;;;;2309674;55;21040;-68
2024/03/30 03:40:48;;;;;;;7.12;3.53;;;14.60;72.80;;;;;;2309665;56;21019;-67
2024/03/30 03:43:14;;;;;;;6.40;3.35;;;14.60;72.80;;;;;;2309331;56;21532;-66
2024/03/30 03:45:45;;;;;;;6.03;3.22;;;14.60;72.80;;;;;;2305900;56;21471;-68
2024/03/30 03:48:11;;;;;;;9.13;3.35;;;14.60;72.60;;;;;;2291689;56;20951;-68
2024/03/30 03:50:38;;;;;;;5.78;2.80;;;14.50;72.60;;;;;;2309843;56;21051;-69
2024/03/30 03:53:06;;;;;;;5.80;2.95;;;14.50;72.60;;;;;;2309937;56;20962;-69
2024/03/30 03:55:32;;;;;;;6.43;3.37;;;14.50;72.50;;;;;;2309998;55;21424;-68
2024/03/30 03:58:00;;;;;;;4.85;2.78;;;14.50;72.40;;;;;;2309927;55;20995;-67
2024/03/30 04:00:27;;;;;;;5.10;2.60;;;14.50;72.40;;;;;;2309893;56;20999;-68
2024/03/30 04:02:53;;;;;;;5.28;2.58;;;14.50;72.30;;;;;;2309915;56;21019;-68
2024/03/30 04:05:21;;;;;;;4.82;2.17;;;14.50;72.30;;;;;;2310218;55;21035;-66
2024/03/30 04:07:47;;;;;;;6.25;2.58;;;14.40;72.20;;;;;;2309512;56;20972;-68
2024/03/30 04:10:15;;;;;;;4.93;2.10;;;14.40;72.30;;;;;;2310037;55;20934;-66
2024/03/30 04:12:42;;;;;;;4.40;2.20;;;14.40;72.30;;;;;;2310571;55;20964;-66
2024/03/30 04:15:09;;;;;;;5.30;2.33;;;14.40;72.30;;;;;;2293302;56;21034;-69
2024/03/30 04:17:35;;;;;;;4.37;2.10;;;14.40;72.30;;;;;;2304269;56;20943;-67
2024/03/30 04:20:02;;;;;;;3.90;1.80;;;14.40;72.20;;;;;;2310537;55;20967;-67
2024/03/30 04:22:28;;;;;;;5.12;2.35;;;14.40;72.20;;;;;;2309813;56;21055;-68
2024/03/30 04:24:54;;;;;;;4.37;2.05;;;14.30;72.70;;;;;;2311134;55;21900;-68
2024/03/30 04:27:21;;;;;;;6.43;2.65;;;14.30;72.00;;;;;;2309826;56;20965;-68
2024/03/30 04:29:47;;;;;;;4.55;2.33;;;14.30;72.00;;;;;;2309972;56;20995;-68
2024/03/30 04:32:13;;;;;;;5.62;2.62;;;14.30;72.10;;;;;;2310069;56;21739;-68
2024/03/30 04:34:40;;;;;;;7.03;3.65;;;14.20;71.90;;;;;;2310200;56;20932;-69
2024/03/30 04:37:06;;;;;;;5.72;2.65;;;14.20;72.00;;;;;;2287907;55;21045;-67
2024/03/30 04:39:33;;;;;;;6.03;2.95;;;14.20;72.10;;;;;;2309829;55;21421;-68
2024/03/30 04:42:02;;;;;;;5.80;2.70;;;14.20;72.10;;;;;;2310353;56;21054;-68
2024/03/30 04:44:28;;;;;;;6.12;3.03;;;14.20;72.20;;;;;;2310023;55;21024;-67
2024/03/30 04:46:54;;;;;;;7.12;3.40;;;14.10;72.10;;;;;;2309822;55;21332;-67
2024/03/30 04:49:21;;;;;;;5.07;2.33;;;14.10;72.20;;;;;;2311168;55;21294;-68
2024/03/30 04:51:47;;;;;;;5.22;2.95;;;14.10;72.20;;;;;;2285640;55;21227;-67
2024/03/30 04:54:14;;;;;;;5.12;2.55;;;14.10;72.20;;;;;;2309503;55;21043;-68
2024/03/30 04:56:40;;;;;;;4.43;2.35;;;14.10;72.10;;;;;;2309941;55;20960;-68
2024/03/30 04:59:06;;;;;;;5.97;3.03;;;14.00;72.00;;;;;;2308350;55;21064;-69
2024/03/30 05:01:33;;;;;;;5.00;2.80;;;14.00;72.00;;;;;;2289143;55;21217;-67
2024/03/30 05:03:59;;;;;;;9.85;4.20;;;14.00;72.10;;;;;;2310095;56;21051;-68
2024/03/30 05:06:26;;;;;;;15.40;6.07;;;14.00;72.10;;;;;;2281524;56;20973;-68
2024/03/30 05:08:52;;;;;;;11.52;5.68;;;14.00;72.20;;;;;;2306314;55;21395;-69
2024/03/30 05:11:18;;;;;;;16.50;8.85;;;14.00;72.30;;;;;;2310312;56;21067;-66
2024/03/30 05:13:47;;;;;;;13.02;7.10;;;13.90;72.20;;;;;;2309621;55;21010;-68
2024/03/30 05:16:14;;;;;;;10.50;5.32;;;13.90;72.20;;;;;;2310243;56;21347;-69
2024/03/30 05:18:40;;;;;;;8.10;4.12;;;13.90;72.20;;;;;;2301253;55;21404;-68
2024/03/30 05:21:06;;;;;;;7.68;3.55;;;13.90;72.20;;;;;;2296740;56;21066;-68
2024/03/30 05:23:33;;;;;;;6.75;2.97;;;13.90;72.20;;;;;;2295849;56;20992;-66
2024/03/30 05:26:03;;;;;;;8.82;3.30;;;13.90;72.30;;;;;;2301554;55;21054;-67
2024/03/30 05:28:31;;;;;;;6.85;3.30;;;13.90;72.20;;;;;;2309909;55;20924;-67
2024/03/30 05:30:57;;;;;;;5.45;2.72;;;13.90;72.30;;;;;;2309315;55;21094;-69
2024/03/30 05:33:25;;;;;;;4.80;2.30;;;13.90;72.30;;;;;;2310927;55;21048;-67
2024/03/30 05:35:52;;;;;;;6.20;2.80;;;13.90;72.30;;;;;;2288417;55;21047;-68
2024/03/30 05:38:18;;;;;;;6.62;2.75;;;13.90;72.30;;;;;;2310028;56;21252;-67
2024/03/30 05:40:45;;;;;;;8.98;3.53;;;13.90;72.40;;;;;;2298723;56;21784;-68
2024/03/30 05:43:11;;;;;;;7.70;3.10;;;13.80;72.30;;;;;;2297804;56;21319;-69
2024/03/30 05:45:38;;;;;;;6.53;2.70;;;13.80;72.40;;;;;;2278914;55;21449;-69
2024/03/30 05:48:05;;;;;;;5.45;2.70;;;13.80;72.40;;;;;;2278834;55;21912;-68
2024/03/30 05:50:31;;;;;;;6.18;2.87;;;13.80;72.40;;;;;;2275072;55;21179;-68
2024/03/30 05:52:58;;;;;;;7.12;2.60;;;13.80;72.40;;;;;;2278375;55;20986;-69
2024/03/30 05:55:24;;;;;;;6.15;3.15;;;13.80;72.50;;;;;;2278556;55;21053;-68
2024/03/30 05:57:54;;;;;;;5.60;2.75;;;13.80;72.50;;;;;;2278124;55;21058;-68
2024/03/30 06:00:22;;;;;;;7.97;3.60;;;13.80;72.50;;;;;;2279136;55;20993;-69
2024/03/30 06:02:48;;;;;;;5.62;2.75;;;13.80;72.50;;;;;;2278519;55;21459;-67
2024/03/30 06:05:14;;;;;;;8.15;3.80;;;13.80;72.50;;;;;;2279164;55;21518;-66
2024/03/30 06:07:41;;;;;;;5.00;2.67;;;13.80;72.60;;;;;;2278762;55;21057;-67
2024/03/30 06:10:08;;;;;;;5.45;2.83;;;13.80;72.70;;;;;;2278487;55;20958;-69
2024/03/30 06:12:38;;;;;;;6.32;2.95;;;13.80;72.80;;;;;;2279274;55;21024;-67
2024/03/30 06:15:05;;;;;;;6.57;2.85;;;13.90;72.90;;;;;;2278484;55;21354;-68
2024/03/30 06:17:35;;;;;;;5.37;2.75;;;13.80;72.80;;;;;;2278402;55;21048;-67
2024/03/30 06:20:05;;;;;;;4.95;2.60;;;13.80;72.80;;;;;;2278243;55;20946;-67
2024/03/30 06:22:34;;;;;;;8.75;3.47;;;13.80;73.00;;;;;;2278390;55;21062;-67
2024/03/30 06:25:02;;;;;;;26.10;17.20;;;13.80;72.90;;;;;;2278536;55;20970;-68
2024/03/30 06:27:28;;;;;;;14.25;9.23;;;13.90;73.20;;;;;;2278080;55;21574;-67
2024/03/30 06:29:55;;;;;;;11.02;7.50;;;13.90;73.50;;;;;;2279077;55;21471;-68
2024/03/30 06:32:24;;;;;;;9.40;5.60;;;13.90;73.20;;;;;;2279479;55;20966;-69
2024/03/30 06:34:51;;;;;;;6.82;4.32;;;13.90;73.20;;;;;;2281549;55;21530;-67
2024/03/30 06:37:17;;;;;;;7.05;3.75;;;13.90;73.20;;;;;;2278285;55;21274;-68
2024/03/30 06:45:13;;;;;;;6.10;3.35;;;13.90;73.30;;;;;;2284592;55;21367;-67
2024/03/30 06:47:39;;;;;;;5.78;3.22;;;13.90;73.30;;;;;;2309993;55;21020;-68
2024/03/30 06:50:06;;;;;;;5.82;2.85;;;13.90;73.30;;;;;;2309946;55;21785;-68
2024/03/30 06:52:55;;;;;;;5.47;2.83;;;14.00;73.40;;;;;;2306201;56;21131;-69
2024/03/30 06:55:33;;;;;;;6.97;3.90;;;14.00;73.10;;;;;;2299352;55;21013;-67
2024/03/30 06:58:39;;;;;;;5.50;3.00;;;14.00;73.40;;;;;;2274198;56;21313;-69
2024/03/30 07:01:19;;;;;;;5.95;2.92;;;14.00;73.00;;;;;;2269301;56;21120;-68
2024/03/30 07:03:52;;;;;;;5.32;2.87;;;14.00;73.40;;;;;;2303362;55;21035;-66
2024/03/30 07:06:48;;;;;;;7.07;3.70;;;14.00;73.60;;;;;;2271946;56;20993;-67
2024/03/30 07:09:32;;;;;;;5.28;2.47;;;14.00;73.40;;;;;;2289976;55;20974;-69
2024/03/30 07:12:17;;;;;;;6.72;3.58;;;14.00;73.50;;;;;;2270956;56;21081;-67
2024/03/30 07:15:11;;;;;;;5.07;2.75;;;14.00;73.50;;;;;;2275008;56;21045;-68
2024/03/30 07:18:07;;;;;;;6.85;3.37;;;14.10;73.60;;;;;;2507130;54;21000;-68
2024/03/30 07:21:08;;;;;;;6.90;3.17;;;14.10;73.60;;;;;;2498879;54;20981;-67
2024/03/30 07:23:42;;;;;;;6.53;3.35;;;14.10;73.40;;;;;;2289958;55;21044;-67
2024/03/30 07:26:23;;;;;;;5.53;3.03;;;14.10;73.50;;;;;;2299027;55;20965;-67
2024/03/30 07:29:02;;;;;;;6.40;3.60;;;14.20;73.70;;;;;;2307056;55;21416;-67
2024/03/30 07:31:56;;;;;;;5.55;2.62;;;14.20;73.70;;;;;;2270150;56;21551;-67
2024/03/30 07:34:35;;;;;;;7.85;3.67;;;14.20;73.60;;;;;;2295161;55;21060;-66
2024/03/30 07:38:44;;;;;;;5.55;2.47;;;14.20;73.80;;;;;;2314708;55;20964;-68
2024/03/30 07:41:38;;;;;;;6.62;3.30;;;14.20;73.40;;;;;;2522022;54;20994;-66
2024/03/30 07:44:27;;;;;;;8.85;3.20;;;14.20;73.80;;;;;;2260044;56;20985;-68
2024/03/30 07:47:15;;;;;;;5.37;2.70;;;14.20;73.60;;;;;;2287879;55;21023;-67
2024/03/30 07:50:00;;;;;;;5.12;2.75;;;14.30;73.90;;;;;;2287838;55;20988;-67
2024/03/30 07:52:39;;;;;;;5.55;2.78;;;14.30;73.70;;;;;;2268334;55;21060;-68
2024/03/30 07:55:21;;;;;;;6.40;3.42;;;14.30;73.90;;;;;;2287003;54;21028;-68
2024/03/30 07:58:13;;;;;;;5.93;3.15;;;14.40;74.30;;;;;;2299998;55;21024;-69
2024/03/30 08:01:02;;;;;;;;;;;;;;;;;;;;;
2024/03/30 08:03:40;;;;;;;5.43;2.97;;;14.40;74.00;;;;;;2280792;55;21468;-67
2024/03/30 08:06:51;;;;;;;5.03;3.08;;;14.40;73.90;;;;;;2490777;55;20976;-69
2024/03/30 08:09:57;;;;;;;10.02;2.90;;;14.40;73.60;;;;;;2510454;54;21509;-69
2024/03/30 08:12:43;;;;;;;6.12;2.78;;;14.40;73.40;;;;;;2276804;56;21029;-68
2024/03/30 08:15:32;;;;;;;4.05;2.05;;;14.40;73.00;;;;;;2285540;56;21313;-69
2024/03/30 08:18:14;;;;;;;4.75;2.50;;;14.40;73.50;;;;;;2279567;56;20985;-68
2024/03/30 08:21:24;;;;;;;5.75;2.85;;;14.50;73.80;;;;;;2300325;56;20995;-67
2024/03/30 08:24:05;;;;;;;7.62;2.70;;;14.40;73.10;;;;;;2494763;55;21009;-67
2024/03/30 08:26:47;;;;;;;5.53;2.67;;;14.50;73.80;;;;;;2251595;56;20999;-67
2024/03/30 08:29:51;;;;;;;6.12;3.28;;;14.50;73.70;;;;;;2482699;55;20980;-67
2024/03/30 08:33:02;;;;;;;5.30;2.72;;;14.50;73.50;;;;;;2279969;56;21077;-67
2024/03/30 08:35:37;;;;;;;5.50;2.92;;;14.50;73.60;;;;;;2282656;55;21610;-68
2024/03/30 08:38:19;;;;;;;;;;;;;;;;;;;;;
2024/03/30 08:41:03;;;;;;;5.53;3.03;;;14.50;74.50;;;;;;2286833;56;21435;-67
2024/03/30 08:43:54;;;;;;;5.25;2.40;;;14.60;74.20;;;;;;2269968;55;21311;-69
2024/03/30 08:46:45;;;;;;;5.40;3.03;;;14.60;74.40;;;;;;2505782;54;20976;-66
2024/03/30 08:49:40;;;;;;;6.15;3.20;;;14.70;74.70;;;;;;2274873;55;21559;-68
2024/03/30 08:52:11;;;;;;;;;;;14.70;74.90;;;;;;2308232;55;21047;-68
2024/03/30 08:55:02;;;;;;;6.95;3.28;;;14.90;73.80;;;;;;2491446;54;20421;-67
2024/03/30 08:57:44;;;;;;;6.82;3.45;;;14.80;75.20;;;;;;2301151;55;20943;-67
2024/03/30 09:00:14;;;;;;;6.03;3.22;;;14.90;74.50;;;;;;2269662;56;21640;-67
2024/03/30 09:02:57;;;;;;;8.98;3.67;;;14.90;74.60;;;;;;2263385;56;21044;-68
2024/03/30 09:05:57;;;;;;;5.93;3.10;;;15.00;74.70;;;;;;2264778;55;21573;-67
2024/03/30 09:08:46;;;;;;;5.37;2.75;;;15.00;74.10;;;;;;2291137;55;21037;-66
2024/03/30 09:11:49;;;;;;;6.57;3.50;;;15.00;74.80;;;;;;2268279;57;21145;-67
2024/03/30 09:14:35;;;;;;;7.30;3.37;;;15.10;74.50;;;;;;2300210;55;20931;-67
2024/03/30 09:17:34;;;;;;;6.80;3.80;;;15.20;74.40;;;;;;2271754;55;21519;-67
2024/03/30 09:20:38;;;;;;;7.20;3.72;;;15.20;74.30;;;;;;2529249;54;21886;-69
2024/03/30 09:23:24;;;;;;;8.38;4.50;;;15.30;74.30;;;;;;2268976;56;21041;-67
2024/03/30 09:26:04;;;;;;;7.43;4.47;;;15.30;73.90;;;;;;2217747;55;3802538;-66
2024/03/30 09:28:39;;;;;;;8.70;4.37;;;15.30;73.90;;;;;;2271073;56;21690;-67
2024/03/30 09:31:25;;;;;;;7.10;4.10;;;15.30;73.80;;;;;;2261045;57;21553;-68
2024/03/30 09:34:16;;;;;;;7.87;3.72;;;15.30;73.70;;;;;;2266361;56;21556;-67
2024/03/30 09:37:30;;;;;;;7.50;4.40;;;15.30;73.70;;;;;;2285215;56;20962;-68
2024/03/30 09:40:27;;;;;;;5.97;3.15;;;15.40;73.50;;;;;;2520527;54;21030;-68
2024/03/30 09:43:13;;;;;;;6.00;3.22;;;15.40;73.60;;;;;;2258375;57;21020;-68
2024/03/30 09:45:58;;;;;;;5.53;3.28;;;15.40;73.50;;;;;;2289817;55;21549;-69
2024/03/30 09:48:42;;;;;;;;;;;;;;;;;;;;;
2024/03/30 09:51:43;;;;;;;4.67;2.57;;;15.40;74.20;;;;;;2276460;55;21764;-69
2024/03/30 09:54:25;;;;;;;5.22;2.75;;;15.50;74.00;;;;;;2280579;56;21034;-68
2024/03/30 09:56:56;;;;;;;5.22;3.00;;;15.50;74.40;;;;;;2280541;55;21082;-67
2024/03/30 09:59:36;;;;;;;5.53;3.17;;;15.60;74.20;;;;;;2272210;56;20965;-68
2024/03/30 10:02:29;;;;;;;5.55;2.97;;;15.60;74.20;;;;;;2293970;55;21477;-67
2024/03/30 10:04:56;;;;;;;6.70;3.55;;;15.60;74.40;;;;;;2304444;55;21426;-67
2024/03/30 10:07:33;;;;;;;5.47;3.60;;;15.60;74.40;;;;;;2279558;56;20953;-67
2024/03/30 10:10:03;;;;;;;6.40;3.47;;;15.70;74.20;;;;;;2305103;55;20939;-68
2024/03/30 10:13:19;;;;;;;6.25;3.67;;;15.70;74.50;;;;;;2305568;55;21360;-67
2024/03/30 10:16:21;;;;;;;7.18;3.47;;;15.70;74.40;;;;;;2306080;55;21086;-69
2024/03/30 10:18:49;;;;;;;6.18;3.40;;;15.80;74.20;;;;;;2303187;55;21938;-67
2024/03/30 10:21:32;;;;;;;5.72;2.92;;;15.80;74.70;;;;;;2298249;55;20977;-67
2024/03/30 10:24:09;;;;;;;7.25;3.50;;;15.80;74.00;;;;;;2282018;56;21057;-69
2024/03/30 10:27:00;;;;;;;6.32;3.30;;;15.90;74.50;;;;;;2273889;55;21117;-67
2024/03/30 10:29:51;;;;;;;6.50;3.37;;;15.90;74.10;;;;;;2516924;54;21716;-67
2024/03/30 10:32:26;;;;;;;6.55;3.40;;;15.90;74.30;;;;;;2296483;55;21029;-68
2024/03/30 10:35:02;;;;;;;6.97;3.62;;;15.90;73.90;;;;;;2262475;56;20982;-69
2024/03/30 10:37:28;;;;;;;7.32;3.87;;;16.00;74.10;;;;;;2292830;55;20936;-68
2024/03/30 10:40:16;;;;;;;;;;;;;;;;;;;;;
2024/03/30 10:43:04;;;;;;;5.82;3.35;;;16.00;74.00;;;;;;2505751;54;21109;-69
2024/03/30 10:45:32;;;;;;;7.25;4.00;;;16.00;74.40;;;;;;2299628;55;21124;-68
2024/03/30 10:47:58;;;;;;;7.25;3.92;;;16.10;74.50;;;;;;2263323;56;21260;-67
2024/03/30 10:50:25;;;;;;;7.57;4.05;;;16.00;74.50;;;;;;2295714;55;21551;-69
2024/03/30 10:52:53;;;;;;;6.40;3.35;;;16.10;74.50;;;;;;2269561;56;20951;-70
2024/03/30 10:55:26;;;;;;;7.35;3.85;;;16.10;74.30;;;;;;2287627;55;20937;-70
2024/03/30 10:57:58;;;;;;;7.30;3.10;;;16.10;74.00;;;;;;2301289;55;21585;-69
2024/03/30 11:00:27;;;;;;;6.95;3.62;;;16.10;73.60;;;;;;2302447;55;20987;-68
2024/03/30 11:02:53;;;;;;;7.30;3.70;;;16.10;73.70;;;;;;2304872;55;20980;-70
2024/03/30 11:05:19;;;;;;;8.65;3.60;;;16.10;73.60;;;;;;2305343;55;20983;-69
2024/03/30 11:07:50;;;;;;;6.37;3.37;;;16.10;73.70;;;;;;2305063;55;21011;-69
2024/03/30 11:10:21;;;;;;;6.75;3.92;;;16.10;73.50;;;;;;2305309;55;20951;-67
2024/03/30 11:12:52;;;;;;;7.97;4.10;;;16.10;73.60;;;;;;2281448;55;20937;-68
2024/03/30 11:15:18;;;;;;;7.18;4.10;;;16.10;73.40;;;;;;2280151;55;20921;-67
2024/03/30 11:17:50;;;;;;;7.20;4.30;;;16.10;73.60;;;;;;2303243;55;20960;-69
2024/03/30 11:20:24;;;;;;;8.73;4.78;;;16.00;73.50;;;;;;2296518;55;21112;-68
2024/03/30 11:23:15;;;;;;;7.57;4.55;;;16.10;73.60;;;;;;2289781;55;20936;-68
2024/03/30 11:25:42;;;;;;;8.15;4.90;;;16.10;73.10;;;;;;2306862;55;21027;-67
2024/03/30 11:28:26;;;;;;;8.23;4.93;;;16.10;74.00;;;;;;2304766;55;21806;-68
2024/03/30 11:32:45;;;;;;;7.07;4.28;;;16.00;73.70;;;;;;2294207;55;20926;-68
2024/03/30 11:35:17;;;;;;;7.37;4.25;;;16.10;72.90;;;;;;2304639;55;21679;-68
2024/03/30 11:37:46;;;;;;;6.72;3.95;;;16.20;73.90;;;;;;2304974;55;20943;-68
2024/03/30 11:44:00;;;;;;;8.20;4.68;;;16.10;73.20;;;;;;2512506;54;21861;-68
2024/03/30 11:47:26;;;;;;;8.75;4.97;;;16.10;73.60;;;;;;2283359;56;21226;-69
2024/03/30 11:50:04;;;;;;;8.98;5.45;;;16.10;73.00;;;;;;2305244;55;21153;-68
2024/03/30 11:52:45;;;;;;;7.03;4.00;;;16.10;74.10;;;;;;2305169;55;20928;-67
2024/03/30 11:55:35;;;;;;;7.65;4.28;;;16.10;74.30;;;;;;2290771;55;21100;-68
2024/03/30 11:58:03;;;;;;;8.18;4.93;;;16.20;73.90;;;;;;2288973;55;21326;-70
2024/03/30 12:01:26;;;;;;;12.23;6.30;;;16.20;74.80;;;;;;2269089;57;21026;-69
2024/03/30 12:03:54;;;;;;;8.93;5.35;;;16.20;73.40;;;;;;2278919;55;20995;-69
2024/03/30 12:06:22;;;;;;;8.68;5.28;;;16.30;74.70;;;;;;2261115;56;20974;-67
2024/03/30 12:08:50;;;;;;;11.07;5.90;;;16.30;74.60;;;;;;2297482;55;21620;-69
2024/03/30 12:11:16;;;;;;;10.77;6.37;;;16.40;75.00;;;;;;2296934;55;21065;-68
2024/03/30 12:13:43;;;;;;;10.98;6.55;;;16.40;75.10;;;;;;2287920;55;21003;-69
2024/03/30 12:16:10;;;;;;;9.32;5.22;;;16.40;75.00;;;;;;2305142;55;21450;-69
2024/03/30 12:18:39;;;;;;;8.88;4.93;;;16.50;75.30;;;;;;2278514;56;21298;-69
2024/03/30 12:21:05;;;;;;;7.78;4.80;;;16.50;75.30;;;;;;2305431;55;20976;-67
2024/03/30 12:23:32;;;;;;;8.85;5.47;;;16.60;75.50;;;;;;2293540;55;21887;-69
2024/03/30 12:30:12;;;;;;;;;;;;;;;;;;;;;
2024/03/30 12:33:12;;;;;;;7.03;4.15;;;16.80;75.20;;;;;;2272573;55;20955;-68
2024/03/30 12:35:58;;;;;;;9.03;4.70;;;16.90;76.00;;;;;;2260871;57;20955;-68
2024/03/30 12:38:55;;;;;;;6.43;3.97;;;17.00;75.70;;;;;;2285730;55;21703;-71
2024/03/30 12:41:41;;;;;;;7.75;4.47;;;17.10;75.60;;;;;;2274438;56;21054;-68
2024/03/30 12:44:26;;;;;;;6.97;3.78;;;17.20;75.80;;;;;;2272128;55;21297;-68
2024/03/30 12:47:17;;;;;;;7.18;3.83;;;17.20;75.70;;;;;;2259941;56;21654;-69
2024/03/30 12:50:04;;;;;;;6.95;4.03;;;17.30;76.10;;;;;;2288030;55;21460;-69
2024/03/30 12:53:01;;;;;;;6.78;4.15;;;17.40;75.50;;;;;;2264228;56;20991;-70
2024/03/30 12:56:22;;;;;;;6.68;3.90;;;17.50;75.80;;;;;;2523285;54;20920;-68
2024/03/30 12:58:54;;;;;;;7.70;4.53;;;17.60;75.90;;;;;;2274345;55;21462;-69
2024/03/30 13:01:52;;;;;;;8.20;5.07;;;17.60;76.30;;;;;;2296722;55;21418;-69
2024/03/30 13:04:44;;;;;;;10.45;5.37;;;17.70;76.20;;;;;;2527568;54;20973;-69
2024/03/30 13:07:35;;;;;;;;;;;;;;;;;;;;;
2024/03/30 13:10:47;;;;;;;7.78;4.65;;;17.90;75.70;;;;;;2516969;54;21298;-68
2024/03/30 13:14:04;;;;;;;6.62;3.97;;;17.90;75.50;;;;;;2524909;54;21038;-69
2024/03/30 13:17:09;;;;;;;8.63;4.50;;;18.10;76.00;;;;;;2276787;56;21071;-68
2024/03/30 13:19:39;;;;;;;8.73;5.25;;;18.10;75.50;;;;;;2291590;55;21477;-68
2024/03/30 13:22:10;;;;;;;9.18;5.20;;;18.20;76.40;;;;;;2304830;55;21040;-69
2024/03/30 13:24:42;;;;;;;8.68;5.05;;;18.20;75.90;;;;;;2305004;55;21440;-69
2024/03/30 13:27:08;;;;;;;;;;;18.30;75.90;;;;;;2308936;55;21019;-70
2024/03/30 13:29:39;;;;;;;9.85;4.85;;;18.40;74.70;;;;;;2303950;55;20224;-69
2024/03/30 13:32:07;;;;;;;12.40;6.65;;;18.40;76.80;;;;;;2304980;55;21004;-69
2024/03/30 13:34:34;;;;;;;7.28;4.57;;;18.50;75.60;;;;;;2304361;55;21513;-68
2024/03/30 13:37:00;;;;;;;8.90;4.85;;;18.60;75.70;;;;;;2304922;55;21131;-69
2024/03/30 13:39:26;;;;;;;10.10;5.85;;;18.60;75.70;;;;;;2305059;55;20930;-70
2024/03/30 13:41:54;;;;;;;8.82;5.45;;;18.60;75.70;;;;;;2304122;55;21003;-69
2024/03/30 13:44:20;;;;;;;8.75;4.53;;;18.70;75.50;;;;;;2304867;55;21512;-68
2024/03/30 13:46:47;;;;;;;6.80;4.30;;;18.70;75.50;;;;;;2304072;55;20960;-69
2024/03/30 13:49:14;;;;;;;10.93;5.62;;;18.80;75.60;;;;;;2299826;55;22036;-70